Strona główna
METAR-TAF:

METAR-TAF

Lotnisko :

Port lotniczy Kolonia/Bonn

Kolonia, Niemcy

Szerokość geograficzna: 50-52N, Długość geograficzna: 007-10E, wysokość: 91 m

Aktualna obserwacja pogody

Raport powstał 33 minut temu, godzina 08:20 UTC
Wiatr 4 kt z kierunków zmiennych
Temperatura 17°C
Wilgotność 45%
Ciśnienie 1033 hPa
Widzialność 10 km lub więcej
Brak chmur poniżej 1500 m i brak chmur cumulonimbus

METAR: EDDK 280820Z VRB04KT CAVOK 17/05 Q1033 BECMG 01010KT

czas: 10:53 (08:53 UTC)

Prognoza

Raport powstał 3 godziny i 53 minut temu, godzina 05:00 UTC
Prognoza ważna od 28 godzina 06 UTC do 29 godzina 12 UTC
Wiatr 5 kt od północ
Widzialność 10 km lub więcej
Brak chmur poniżej 1500 m i brak chmur cumulonimbus
Stopniowe zmiany
od 28 godzina 08 UTC do 28 godzina 11 UTC
Wiatr 10 kt od północ
Stopniowe zmiany
od 28 godzina 19 UTC do 28 godzina 22 UTC
Wiatr 4 kt od wschodnio-północny wschód

TAF: EDDK 280500Z 2806/2912 35005KT CAVOK BECMG 2808/2811 36010KT BECMG 2819/2822 07004KT

Obserwacja i prognoza pogody dla ponad 4000 lotnisk (raport METAR i TAF).

Dostępne stacje oznaczono żółtymi i czerwonymi punktami na mapie.

Najedź kursorem aby zobaczyć nazwę stacji.

Kliknij aby zobaczyć obserwacje i prognozy pogody.

Aby zmienić mapę: kliknij na zielony przycisk z czarnym krzyżykiem, aby powiększyć; na zielony przycisk z myślnikiem, aby pomniejszyć; na zielone strzałki, aby przejść do map sąsiednich.


METAR-TAF: